createdAt,value
2023-03-24T00:04:29.731Z,10.19
2023-03-24T00:08:07.894Z,10.27
2023-03-24T00:11:45.814Z,10.30
2023-03-24T00:15:41.735Z,10.29
2023-03-24T00:22:59.080Z,10.18
2023-03-24T00:31:26.779Z,10.23
2023-03-24T00:33:26.712Z,10.18
2023-03-24T00:37:17.235Z,10.11
2023-03-24T00:40:45.940Z,10.04
2023-03-24T00:43:58.959Z,10.02
2023-03-24T00:48:32.348Z,10.08
2023-03-24T00:52:04.911Z,10.18
2023-03-24T00:59:37.360Z,10.22
2023-03-24T01:02:54.330Z,10.23
2023-03-24T01:07:09.907Z,10.18
2023-03-24T01:37:32.607Z,9.98
2023-03-24T01:45:40.839Z,10.19
2023-03-24T01:49:19.890Z,10.21
2023-03-24T01:56:45.763Z,10.21
2023-03-24T02:00:50.670Z,10.11
2023-03-24T02:04:37.157Z,10.03
2023-03-24T02:09:08.282Z,10.08
2023-03-24T02:12:22.163Z,10.17
2023-03-24T02:15:29.328Z,10.21
2023-03-24T02:19:08.888Z,10.20
2023-03-24T02:22:44.184Z,10.11
2023-03-24T02:27:14.536Z,10.12
2023-03-24T02:39:13.578Z,10.26
2023-03-24T02:42:55.280Z,10.21
2023-03-24T02:46:56.504Z,10.22
2023-03-24T02:51:19.368Z,10.15
2023-03-24T02:55:18.064Z,10.14
2023-03-24T02:58:37.329Z,10.28
2023-03-24T03:05:39.735Z,10.48
2023-03-24T03:16:24.431Z,10.54
2023-03-24T03:19:55.641Z,10.57
2023-03-24T03:23:18.714Z,10.47
2023-03-24T03:31:00.123Z,10.45
2023-03-24T03:34:10.672Z,10.57
2023-03-24T03:38:06.302Z,10.60
2023-03-24T03:41:51.198Z,10.57
2023-03-24T03:45:40.008Z,10.53
2023-03-24T03:49:35.877Z,10.59
2023-03-24T03:53:03.479Z,10.48
2023-03-24T03:56:41.345Z,10.53
2023-03-24T03:59:50.191Z,10.59
2023-03-24T04:03:12.800Z,10.61
2023-03-24T04:11:30.614Z,10.58
2023-03-24T04:26:46.872Z,12.05
2023-03-24T04:30:10.799Z,12.09
2023-03-24T04:33:43.992Z,12.60
2023-03-24T04:36:56.782Z,12.32
2023-03-24T04:40:00.323Z,12.38
2023-03-24T04:43:11.862Z,12.25
2023-03-24T04:46:18.049Z,12.17
2023-03-24T04:49:19.783Z,11.91
2023-03-24T04:52:21.424Z,11.76
2023-03-24T04:55:53.846Z,11.65
2023-03-24T04:58:56.735Z,11.39
2023-03-24T05:02:00.691Z,11.35
2023-03-24T05:05:03.633Z,11.28
2023-03-24T05:08:05.429Z,11.13
2023-03-24T05:11:07.376Z,11.08
2023-03-24T05:14:09.171Z,10.99
2023-03-24T05:17:11.028Z,11.02
2023-03-24T05:20:13.010Z,10.89
2023-03-24T05:23:17.231Z,10.89
2023-03-24T05:26:18.783Z,10.86
2023-03-24T05:29:20.518Z,10.75
2023-03-24T05:32:22.652Z,10.78
2023-03-24T05:35:24.986Z,10.74
2023-03-24T05:38:26.712Z,10.75
2023-03-24T05:41:28.393Z,10.73
2023-03-24T05:44:30.105Z,10.71
2023-03-24T05:47:31.756Z,10.75
2023-03-24T05:50:33.585Z,10.72
2023-03-24T05:53:37.852Z,10.70
2023-03-24T05:56:39.499Z,10.73
2023-03-24T05:59:41.520Z,10.75
2023-03-24T06:02:44.125Z,10.76
2023-03-24T06:05:47.856Z,10.75
2023-03-24T06:08:50.349Z,10.73
2023-03-24T06:11:51.912Z,10.73
2023-03-24T06:14:53.508Z,10.69
2023-03-24T06:17:55.404Z,10.67
2023-03-24T06:20:57.118Z,10.70
2023-03-24T06:23:59.257Z,10.73
2023-03-24T06:27:02.511Z,10.73
2023-03-24T06:30:04.679Z,10.68
2023-03-24T06:33:08.240Z,10.59
2023-03-24T06:36:11.568Z,10.57
2023-03-24T06:39:13.378Z,10.64
2023-03-24T06:42:14.924Z,10.65
2023-03-24T06:45:16.631Z,10.60
2023-03-24T06:48:18.294Z,10.71
2023-03-24T06:51:20.031Z,10.79
2023-03-24T06:54:22.350Z,10.82
2023-03-24T06:57:23.948Z,10.76
2023-03-24T07:00:26.114Z,10.82
2023-03-24T07:03:27.817Z,10.92
2023-03-24T07:06:40.221Z,10.98
2023-03-24T07:09:48.452Z,10.93
2023-03-24T07:12:50.061Z,10.90
2023-03-24T07:15:54.296Z,10.82
2023-03-24T07:18:55.974Z,10.80
2023-03-24T07:21:57.523Z,10.84
2023-03-24T07:25:01.708Z,10.78
2023-03-24T07:28:03.459Z,10.89
2023-03-24T07:31:05.399Z,10.98
2023-03-24T07:34:07.485Z,11.03
2023-03-24T07:37:09.316Z,11.00
2023-03-24T07:40:17.902Z,10.91
2023-03-24T07:43:22.820Z,10.96
2023-03-24T07:46:24.785Z,10.98
2023-03-24T07:49:27.487Z,10.94
2023-03-24T07:52:35.071Z,10.99
2023-03-24T07:55:38.302Z,10.99
2023-03-24T07:58:41.881Z,10.97
2023-03-24T08:01:43.947Z,10.91
2023-03-24T08:04:45.587Z,10.97
2023-03-24T08:07:53.619Z,11.10
2023-03-24T08:10:55.352Z,11.03
2023-03-24T08:14:01.082Z,11.17
2023-03-24T08:17:02.903Z,11.27
2023-03-24T08:20:08.357Z,11.33
2023-03-24T08:23:10.494Z,11.40
2023-03-24T08:26:29.331Z,11.60
2023-03-24T08:29:30.948Z,11.60
2023-03-24T08:32:34.272Z,11.69
2023-03-24T08:35:38.961Z,11.77
2023-03-24T08:38:41.769Z,11.77
2023-03-24T08:41:43.469Z,11.79
2023-03-24T08:44:45.124Z,11.85
2023-03-24T08:52:09.497Z,11.95
2023-03-24T08:55:13.324Z,12.27
2023-03-24T08:58:16.186Z,12.15
2023-03-24T09:01:18.357Z,12.28
2023-03-24T09:04:19.867Z,12.41
2023-03-24T09:07:21.783Z,12.18
2023-03-24T09:10:23.682Z,12.41
2023-03-24T09:13:25.649Z,12.46
2023-03-24T09:16:28.485Z,12.47
2023-03-24T09:19:30.252Z,12.34
2023-03-24T09:22:31.935Z,12.35
2023-03-24T09:25:33.573Z,12.18
2023-03-24T09:28:35.539Z,12.31
2023-03-24T09:31:37.350Z,12.26
2023-03-24T09:34:39.167Z,12.14
2023-03-24T09:37:43.987Z,12.13
2023-03-24T09:40:46.015Z,12.46
2023-03-24T09:44:03.522Z,12.61
2023-03-24T09:47:25.985Z,12.35
2023-03-24T09:50:28.618Z,12.43
2023-03-24T09:53:50.074Z,12.41
2023-03-24T09:56:55.016Z,12.48
2023-03-24T09:59:56.701Z,12.43
2023-03-24T10:03:00.736Z,12.53
2023-03-24T10:06:08.323Z,12.76
2023-03-24T10:09:34.646Z,12.70
2023-03-24T10:12:39.851Z,12.59
2023-03-24T10:15:50.315Z,12.53
2023-03-24T10:18:59.661Z,12.63
2023-03-24T10:22:01.217Z,12.76
2023-03-24T10:25:13.918Z,12.79
2023-03-24T10:28:39.051Z,12.81
2023-03-24T10:31:50.220Z,12.86
2023-03-24T10:34:55.449Z,12.73
2023-03-24T10:38:24.768Z,12.66
2023-03-24T10:41:29.161Z,12.63
2023-03-24T10:44:31.074Z,12.81
2023-03-24T10:47:56.634Z,13.01
2023-03-24T10:51:22.065Z,13.15
2023-03-24T10:54:36.016Z,13.17
2023-03-24T13:37:09.275Z,11.99
2023-03-24T13:39:47.717Z,11.95
2023-03-24T13:43:11.199Z,11.84
2023-03-24T13:46:13.775Z,11.63
2023-03-24T13:49:17.201Z,11.78
2023-03-24T13:52:50.571Z,11.59
2023-03-24T13:56:01.849Z,11.58
2023-03-24T13:59:03.783Z,11.45
2023-03-24T14:02:41.554Z,11.27
2023-03-24T14:06:02.630Z,11.46
2023-03-24T14:09:18.050Z,11.17
2023-03-24T14:12:20.115Z,11.25
2023-03-24T14:15:31.430Z,10.99
2023-03-24T14:18:33.033Z,11.02
2023-03-24T14:21:34.682Z,11.06
2023-03-24T14:24:37.181Z,10.91
2023-03-24T14:27:42.505Z,10.93
2023-03-24T14:31:17.342Z,10.90
2023-03-24T14:34:21.268Z,10.72
2023-03-24T14:37:23.506Z,10.26
2023-03-24T15:23:17.487Z,10.78
2023-03-24T15:26:31.380Z,10.83
2023-03-24T15:29:46.500Z,10.77
2023-03-24T15:32:52.659Z,10.90
2023-03-24T15:35:56.795Z,10.87
2023-03-24T15:39:13.558Z,11.16
2023-03-24T15:42:17.373Z,11.01
2023-03-24T15:45:31.674Z,11.04
2023-03-24T15:48:35.163Z,11.09
2023-03-24T15:51:55.286Z,10.90
2023-03-24T15:55:08.511Z,10.66
2023-03-24T15:58:32.304Z,10.77
2023-03-24T16:01:36.614Z,10.62
2023-03-24T16:04:38.748Z,10.58
2023-03-24T16:07:40.870Z,10.70
2023-03-24T16:10:47.920Z,10.77
2023-03-24T16:13:50.310Z,10.79
2023-03-24T16:16:56.182Z,10.61
2023-03-24T16:19:57.947Z,10.67
2023-03-24T16:22:59.660Z,10.69
2023-03-24T16:26:04.225Z,10.83
2023-03-24T16:29:26.336Z,10.85
2023-03-24T16:32:28.054Z,11.02
2023-03-24T16:35:29.829Z,10.88
2023-03-24T16:38:33.154Z,11.31
2023-03-24T16:41:34.723Z,11.40
2023-03-24T16:44:36.429Z,11.29
2023-03-24T16:47:38.108Z,10.99
2023-03-24T16:50:46.928Z,11.11
2023-03-24T16:53:48.840Z,11.06
2023-03-24T16:56:50.864Z,11.14
2023-03-24T16:59:52.565Z,10.63
2023-03-24T17:02:54.253Z,10.84
2023-03-24T17:05:56.825Z,10.95
2023-03-24T17:08:58.896Z,11.04
2023-03-24T17:12:02.513Z,10.86
2023-03-24T17:15:04.392Z,10.81
2023-03-24T17:18:08.399Z,10.58
2023-03-24T17:21:17.240Z,10.40
2023-03-24T17:24:19.051Z,10.36
2023-03-24T17:27:21.265Z,10.25
2023-03-24T17:30:23.259Z,10.04
2023-03-24T17:33:25.123Z,10.22
2023-03-24T17:36:26.866Z,9.99
2023-03-24T17:39:28.649Z,10.17
2023-03-24T17:42:30.443Z,10.15
2023-03-24T17:45:31.993Z,10.25
2023-03-24T17:48:33.746Z,9.94
2023-03-24T17:51:35.419Z,9.91
2023-03-24T17:54:36.963Z,9.84
2023-03-24T17:57:38.795Z,9.79
2023-03-24T18:00:41.533Z,9.72
2023-03-24T18:03:43.270Z,9.83
2023-03-24T18:06:46.257Z,9.88
2023-03-24T18:09:47.982Z,10.06
2023-03-24T18:12:49.605Z,9.98
2023-03-24T18:20:45.790Z,9.52
2023-03-24T18:24:12.421Z,9.41
2023-03-24T18:27:34.571Z,9.48
2023-03-24T18:30:36.938Z,9.45
2023-03-24T18:33:51.533Z,9.62
2023-03-24T18:37:18.913Z,9.48
2023-03-24T18:40:49.731Z,9.51
2023-03-24T18:43:53.474Z,9.21
2023-03-24T18:46:57.130Z,9.27
2023-03-24T18:50:03.956Z,9.35
2023-03-24T18:53:16.818Z,9.36
2023-03-24T18:56:19.469Z,9.14
2023-03-24T18:59:49.799Z,8.97
2023-03-24T19:03:35.964Z,9.09
2023-03-24T19:06:48.608Z,9.14
2023-03-24T19:09:51.265Z,9.15
2023-03-24T19:12:54.687Z,9.26
2023-03-24T19:15:59.021Z,9.24
2023-03-24T19:19:03.836Z,9.14
2023-03-24T19:22:07.456Z,9.17
2023-03-24T19:28:34.620Z,9.01
2023-03-24T19:31:39.572Z,8.96
2023-03-24T19:34:41.412Z,9.11
2023-03-24T19:37:47.599Z,9.11
2023-03-24T19:40:51.629Z,9.05
2023-03-24T19:44:01.882Z,9.13
2023-03-24T19:47:03.874Z,8.91
2023-03-24T19:50:08.524Z,8.91
2023-03-24T19:53:10.419Z,8.81
2023-03-24T19:56:12.369Z,8.82
2023-03-24T19:59:13.960Z,8.72
2023-03-24T20:02:17.807Z,8.67
2023-03-24T20:05:19.585Z,8.66
2023-03-24T20:08:21.620Z,8.65
2023-03-24T20:11:23.244Z,8.70
2023-03-24T20:14:24.892Z,8.80
2023-03-24T20:17:28.754Z,8.74
2023-03-24T20:20:30.656Z,8.79
2023-03-24T20:23:32.464Z,8.71
2023-03-24T20:26:34.342Z,8.72
2023-03-24T20:29:37.184Z,8.75
2023-03-24T20:32:40.978Z,8.73
2023-03-24T20:35:43.361Z,8.68
2023-03-24T20:38:44.830Z,8.77
2023-03-24T20:41:46.342Z,8.81
2023-03-24T20:44:47.893Z,8.90
2023-03-24T20:47:52.226Z,9.02
2023-03-24T20:50:54.006Z,8.91
2023-03-24T20:54:02.395Z,8.73
2023-03-24T21:10:56.746Z,8.39
2023-03-24T21:14:09.340Z,8.43
2023-03-24T21:17:39.325Z,8.21
2023-03-24T21:27:48.925Z,8.34
2023-03-24T21:31:11.320Z,8.37
2023-03-24T21:34:19.060Z,8.34
2023-03-24T21:37:28.280Z,8.43
2023-03-24T21:40:30.020Z,8.69
2023-03-24T21:43:38.004Z,8.64
2023-03-24T21:51:17.924Z,8.87
2023-03-24T22:10:35.696Z,8.17
2023-03-24T22:13:39.431Z,8.22
2023-03-24T22:16:46.421Z,8.27
2023-03-24T22:19:51.015Z,8.43
2023-03-24T22:23:03.551Z,8.14
2023-03-24T22:26:13.020Z,8.09
2023-03-24T22:37:45.539Z,8.05
2023-03-24T22:41:22.714Z,8.27
2023-03-24T23:02:10.672Z,8.27
2023-03-24T23:05:31.279Z,8.27
2023-03-24T23:08:39.823Z,7.88
2023-03-24T23:12:27.181Z,7.69
2023-03-24T23:15:36.529Z,7.45
2023-03-24T23:18:38.283Z,7.38
2023-03-24T23:21:39.909Z,7.59
2023-03-24T23:24:44.028Z,7.59
2023-03-24T23:27:47.885Z,7.56
2023-03-24T23:30:50.909Z,7.62
2023-03-24T23:33:56.414Z,7.61
2023-03-24T23:36:58.266Z,7.52
2023-03-24T23:40:13.057Z,7.68
2023-03-24T23:43:14.920Z,7.63
2023-03-24T23:46:17.584Z,7.63
2023-03-24T23:49:25.306Z,7.65
2023-03-24T23:52:26.902Z,7.46
2023-03-24T23:55:30.608Z,7.59
2023-03-24T23:58:38.254Z,7.64
